createdAt,value
2023-03-23T16:01:06.731Z,31.51
2023-03-23T16:04:43.192Z,31.60
2023-03-23T16:08:13.479Z,31.57
2023-03-23T16:11:42.088Z,31.80
2023-03-23T16:15:10.856Z,31.59
2023-03-23T16:18:39.474Z,31.57
2023-03-23T16:22:08.351Z,31.55
2023-03-23T16:25:38.315Z,31.74
2023-03-23T16:29:15.956Z,31.68
2023-03-23T16:32:54.315Z,31.83
2023-03-23T16:36:25.009Z,31.66
2023-03-23T16:38:54.906Z,31.54
2023-03-23T16:41:24.833Z,31.59
2023-03-23T16:44:53.483Z,31.77
2023-03-23T16:48:22.185Z,31.79
2023-03-23T16:51:50.832Z,31.96
2023-03-23T16:55:19.797Z,32.23
2023-03-23T16:58:48.423Z,32.11
2023-03-23T17:02:17.147Z,31.93
2023-03-23T17:05:46.546Z,32.21
2023-03-23T17:09:15.482Z,32.15
2023-03-23T17:12:44.145Z,32.27
2023-03-23T17:16:13.039Z,32.19
2023-03-23T17:24:46.649Z,32.40
2023-03-23T17:27:22.053Z,32.17
2023-03-23T17:29:52.089Z,32.29
2023-03-23T17:33:20.973Z,32.42
2023-03-23T17:36:49.798Z,32.73
2023-03-23T17:40:18.432Z,32.62
2023-03-23T17:43:47.164Z,32.71
2023-03-23T17:47:15.866Z,32.69
2023-03-23T17:50:44.592Z,32.99
2023-03-23T17:54:13.245Z,33.20
2023-03-23T17:57:43.285Z,33.40
2023-03-23T18:01:12.901Z,33.38
2023-03-23T18:04:41.622Z,33.40
2023-03-23T18:07:11.780Z,33.02
2023-03-23T18:09:41.597Z,33.05
2023-03-23T18:12:12.197Z,33.18
2023-03-23T18:14:41.870Z,33.12
2023-03-23T18:17:11.863Z,33.36
2023-03-23T18:20:40.563Z,33.53
2023-03-23T18:24:09.224Z,33.37
2023-03-23T18:27:37.974Z,33.38
2023-03-23T18:31:06.640Z,33.50
2023-03-23T18:34:35.333Z,33.51
2023-03-23T18:38:03.995Z,33.56
2023-03-23T18:41:32.757Z,33.47
2023-03-23T18:45:01.440Z,33.58
2023-03-23T18:48:30.120Z,33.51
2023-03-23T18:51:58.780Z,33.47
2023-03-23T18:55:27.493Z,33.66
2023-03-23T18:58:56.167Z,33.74
2023-03-23T19:02:25.317Z,33.73
2023-03-23T19:05:53.992Z,33.73
2023-03-23T19:09:22.683Z,33.62
2023-03-23T19:12:51.332Z,33.83
2023-03-23T19:16:20.129Z,33.83
2023-03-23T19:19:48.839Z,33.69
2023-03-23T19:23:17.626Z,33.82
2023-03-23T20:18:53.604Z,34.21
2023-03-23T20:22:22.928Z,34.34
2023-03-23T20:25:51.930Z,34.34
2023-03-23T20:29:20.786Z,34.29
2023-03-23T20:32:49.570Z,34.40
2023-03-23T20:36:18.333Z,34.34
2023-03-23T20:39:47.081Z,34.34
2023-03-23T20:43:15.830Z,34.32
2023-03-23T20:46:44.575Z,34.35
2023-03-23T20:50:13.235Z,34.42
2023-03-23T20:53:42.000Z,34.62
2023-03-23T20:57:10.843Z,34.47
2023-03-23T21:00:39.661Z,34.33
2023-03-23T21:04:08.346Z,34.40
2023-03-23T21:07:37.103Z,34.46
2023-03-23T21:11:05.883Z,34.43
2023-03-23T21:14:34.591Z,34.53
2023-03-23T21:18:03.269Z,34.30
2023-03-23T21:21:33.276Z,34.48
2023-03-23T21:24:02.938Z,34.26
2023-03-23T21:26:32.853Z,34.28
2023-03-23T21:29:02.487Z,34.23
2023-03-23T21:31:34.688Z,34.37
2023-03-23T21:34:04.681Z,34.35
2023-03-23T21:36:34.887Z,34.45
2023-03-23T21:39:07.544Z,34.48
2023-03-23T21:41:42.185Z,34.40
2023-03-23T21:45:11.436Z,34.56
2023-03-23T21:48:40.088Z,34.58
2023-03-23T21:52:08.794Z,34.50
2023-03-23T21:55:37.497Z,34.62
2023-03-23T21:59:06.134Z,34.61
2023-03-23T22:02:34.884Z,34.55
2023-03-23T22:05:11.768Z,34.25
2023-03-23T22:07:41.498Z,34.24
2023-03-23T22:11:10.254Z,34.51
2023-03-23T22:14:38.881Z,34.58
2023-03-23T22:18:07.619Z,34.72
2023-03-23T22:21:36.326Z,34.78
2023-03-23T22:25:05.133Z,35.71
2023-03-23T22:27:34.901Z,35.15
2023-03-23T22:30:04.702Z,35.19
2023-03-23T22:32:34.444Z,35.27
2023-03-23T22:35:04.163Z,35.21
2023-03-23T22:38:32.817Z,35.52
2023-03-23T22:41:04.253Z,35.33
2023-03-23T22:43:33.876Z,35.51
2023-03-23T22:46:03.842Z,35.27
2023-03-23T22:48:34.000Z,35.43
2023-03-23T22:52:02.723Z,36.02
2023-03-23T22:55:31.480Z,35.84
2023-03-23T22:59:00.191Z,35.89
2023-03-23T23:02:29.010Z,35.74
2023-03-23T23:05:57.828Z,35.73
2023-03-23T23:09:26.508Z,35.73
2023-03-23T23:12:55.229Z,35.67
2023-03-23T23:16:23.975Z,35.63
2023-03-23T23:19:52.724Z,35.58
2023-03-23T23:23:21.373Z,35.36
2023-03-23T23:26:50.091Z,35.18
2023-03-23T23:30:18.735Z,35.71
2023-03-23T23:33:47.608Z,35.48
2023-03-23T23:37:16.266Z,35.68
2023-03-23T23:40:45.288Z,36.55
2023-03-23T23:44:14.171Z,36.73
2023-03-23T23:47:42.959Z,36.58
2023-03-23T23:51:11.681Z,36.62
2023-03-23T23:54:40.482Z,36.45
2023-03-23T23:58:09.141Z,36.39
